Time;durP1;ratioP1;P1;durP2;ratioP2;P2;SDS_P1;SDS_P2;PMS_P1;PMS_P2;Temp;Humidity;BMP_temperature;BMP_pressure;BME280_temperature;BME280_humidity;BME280_pressure;Samples;Min_cycle;Max_cycle;Signal;HPM_P1;HPM_P2
2023/09/15 00:01:38;;;;;;;4.00;2.97;;;;;;;;;;4976685;28;20431;-62
2023/09/15 00:04:07;;;;;;;6.10;2.70;;;;;;;;;;4976807;28;20923;-62
2023/09/15 00:06:35;;;;;;;5.30;2.20;;;;;;;;;;4976764;28;20447;-63
2023/09/15 00:09:01;;;;;;;2.43;2.33;;;;;;;;;;4977002;28;20779;-63
2023/09/15 00:11:39;;;;;;;2.60;2.50;;;;;;;;;;4976659;28;20979;-63
2023/09/15 00:14:05;;;;;;;3.17;2.20;;;;;;;;;;4976701;28;20403;-62
2023/09/15 00:16:34;;;;;;;8.40;2.27;;;;;;;;;;4976818;28;20429;-62
2023/09/15 00:18:59;;;;;;;5.60;2.57;;;;;;;;;;4976549;28;20423;-63
2023/09/15 00:21:26;;;;;;;4.20;2.70;;;;;;;;;;4975234;28;20427;-62
2023/09/15 00:23:52;;;;;;;5.23;2.53;;;;;;;;;;4975384;28;20438;-62
2023/09/15 00:26:23;;;;;;;3.17;2.87;;;;;;;;;;4975534;28;20415;-63
2023/09/15 00:28:49;;;;;;;2.73;2.50;;;;;;;;;;4976513;28;20439;-62
2023/09/15 00:31:15;;;;;;;3.13;2.70;;;;;;;;;;4976412;28;20894;-62
2023/09/15 00:33:43;;;;;;;4.00;3.00;;;;;;;;;;4976275;28;20451;-62
2023/09/15 00:36:12;;;;;;;4.90;2.70;;;;;;;;;;4975226;28;20430;-62
2023/09/15 00:38:38;;;;;;;5.53;3.07;;;;;;;;;;4976209;28;20479;-62
2023/09/15 00:41:04;;;;;;;7.60;2.87;;;;;;;;;;4976328;28;20428;-62
2023/09/15 00:43:30;;;;;;;2.80;2.60;;;;;;;;;;4976240;28;20479;-62
2023/09/15 00:45:56;;;;;;;7.60;2.70;;;;;;;;;;4975659;28;20415;-62
2023/09/15 00:48:22;;;;;;;4.00;2.37;;;;;;;;;;4976033;28;20451;-62
2023/09/15 00:50:48;;;;;;;3.90;2.77;;;;;;;;;;4976042;28;20948;-62
2023/09/15 00:53:19;;;;;;;2.50;2.00;;;;;;;;;;4975986;28;20505;-63
2023/09/15 00:55:45;;;;;;;3.13;2.93;;;;;;;;;;4975517;28;20412;-63
2023/09/15 00:58:12;;;;;;;2.60;2.40;;;;;;;;;;4975919;28;20404;-63
2023/09/15 01:00:42;;;;;;;2.77;2.50;;;;;;;;;;4975849;28;20960;-63
2023/09/15 01:03:08;;;;;;;6.47;3.00;;;;;;;;;;4975991;28;20446;-62
2023/09/15 01:05:38;;;;;;;8.90;2.80;;;;;;;;;;4975490;28;20430;-62
2023/09/15 01:08:07;;;;;;;2.73;2.50;;;;;;;;;;4976141;28;20435;-63
2023/09/15 01:10:33;;;;;;;6.70;2.77;;;;;;;;;;4975580;28;20794;-62
2023/09/15 01:13:00;;;;;;;6.73;2.63;;;;;;;;;;4975507;28;20481;-62
2023/09/15 01:15:33;;;;;;;3.73;2.73;;;;;;;;;;4975517;28;20415;-63
2023/09/15 01:18:18;;;;;;;2.17;2.00;;;;;;;;;;4974318;28;20419;-63
2023/09/15 01:21:02;;;;;;;3.00;2.80;;;;;;;;;;4975455;28;20432;-63
2023/09/15 01:23:41;;;;;;;4.30;2.80;;;;;;;;;;4975968;28;20796;-62
2023/09/15 01:26:07;;;;;;;9.03;2.83;;;;;;;;;;4974308;28;20413;-63
2023/09/15 01:28:35;;;;;;;2.70;2.50;;;;;;;;;;4975395;28;20435;-63
2023/09/15 01:31:06;;;;;;;6.33;2.27;;;;;;;;;;4975229;28;20455;-63
2023/09/15 01:33:32;;;;;;;3.27;2.90;;;;;;;;;;4975266;28;20585;-63
2023/09/15 01:35:59;;;;;;;2.60;2.40;;;;;;;;;;4975157;28;20414;-63
2023/09/15 01:38:25;;;;;;;7.03;2.80;;;;;;;;;;4975314;28;20436;-63
2023/09/15 01:40:51;;;;;;;8.30;2.87;;;;;;;;;;4975043;28;20923;-62
2023/09/15 01:43:17;;;;;;;7.33;3.07;;;;;;;;;;4973834;28;20414;-63
2023/09/15 01:45:43;;;;;;;3.87;2.93;;;;;;;;;;4974944;28;20427;-63
2023/09/15 01:48:12;;;;;;;3.83;2.80;;;;;;;;;;4974808;28;20435;-63
2023/09/15 01:50:41;;;;;;;3.40;3.03;;;;;;;;;;4975126;28;20448;-63
2023/09/15 01:53:07;;;;;;;7.50;2.50;;;;;;;;;;4974873;28;20511;-63
2023/09/15 01:55:36;;;;;;;3.33;2.60;;;;;;;;;;4974942;28;20419;-63
2023/09/15 01:58:04;;;;;;;3.07;2.80;;;;;;;;;;4974701;28;20518;-63
2023/09/15 02:00:34;;;;;;;3.23;2.90;;;;;;;;;;4974778;28;20857;-63
2023/09/15 02:03:06;;;;;;;2.97;2.50;;;;;;;;;;4974649;28;20850;-63
2023/09/15 02:05:32;;;;;;;3.90;2.73;;;;;;;;;;4974620;28;20506;-63
2023/09/15 02:08:00;;;;;;;3.97;2.83;;;;;;;;;;4974676;28;20442;-63
2023/09/15 02:10:26;;;;;;;2.83;2.57;;;;;;;;;;4973727;28;20454;-63
2023/09/15 02:12:52;;;;;;;3.27;2.90;;;;;;;;;;4974328;28;20471;-63
2023/09/15 02:15:19;;;;;;;3.20;2.93;;;;;;;;;;4973290;28;20450;-63
2023/09/15 02:17:45;;;;;;;2.40;2.30;;;;;;;;;;4973256;28;20808;-63
2023/09/15 02:20:16;;;;;;;3.00;2.80;;;;;;;;;;4974591;28;20446;-62
2023/09/15 02:22:45;;;;;;;5.67;2.83;;;;;;;;;;4973401;28;20930;-63
2023/09/15 02:25:11;;;;;;;3.33;2.90;;;;;;;;;;4974233;28;20449;-63
2023/09/15 02:27:40;;;;;;;2.70;2.37;;;;;;;;;;4974229;28;20526;-63
2023/09/15 02:30:06;;;;;;;3.07;2.90;;;;;;;;;;4974128;28;20489;-63
2023/09/15 02:32:32;;;;;;;2.97;2.77;;;;;;;;;;4974193;28;20508;-63
2023/09/15 02:34:58;;;;;;;13.03;3.00;;;;;;;;;;4974113;28;20486;-63
2023/09/15 02:37:24;;;;;;;4.67;3.10;;;;;;;;;;4974026;28;20442;-63
2023/09/15 02:39:53;;;;;;;3.80;2.90;;;;;;;;;;4974252;28;20428;-63
2023/09/15 02:42:19;;;;;;;5.23;3.20;;;;;;;;;;4973883;28;20948;-63
2023/09/15 02:44:45;;;;;;;3.60;3.30;;;;;;;;;;4973735;28;20512;-63
2023/09/15 02:47:13;;;;;;;3.43;2.63;;;;;;;;;;4973775;28;20901;-63
2023/09/15 02:49:41;;;;;;;5.57;3.33;;;;;;;;;;4974016;28;20435;-63
2023/09/15 02:52:08;;;;;;;3.80;3.20;;;;;;;;;;4973759;28;20470;-63
2023/09/15 02:54:36;;;;;;;8.17;3.93;;;;;;;;;;4974002;28;20415;-63
2023/09/15 02:57:04;;;;;;;10.40;3.40;;;;;;;;;;4973617;28;20849;-63
2023/09/15 02:59:30;;;;;;;3.20;2.97;;;;;;;;;;4973830;28;20445;-63
2023/09/15 03:01:56;;;;;;;6.30;3.30;;;;;;;;;;4973706;28;20870;-63
2023/09/15 03:04:22;;;;;;;3.57;3.20;;;;;;;;;;4972733;28;20445;-63
2023/09/15 03:06:48;;;;;;;6.17;3.60;;;;;;;;;;4972711;28;20449;-63
2023/09/15 03:09:17;;;;;;;8.70;3.40;;;;;;;;;;4972997;28;21043;-63
2023/09/15 03:11:43;;;;;;;2.97;2.77;;;;;;;;;;4973231;28;20458;-63
2023/09/15 03:14:09;;;;;;;8.03;3.17;;;;;;;;;;4973127;28;20417;-63
2023/09/15 03:16:35;;;;;;;6.33;3.70;;;;;;;;;;4973560;28;20438;-63
2023/09/15 03:19:01;;;;;;;6.37;3.10;;;;;;;;;;4972964;28;20425;-63
2023/09/15 03:21:27;;;;;;;7.03;3.10;;;;;;;;;;4973349;28;20434;-63
2023/09/15 03:23:55;;;;;;;5.60;3.40;;;;;;;;;;4973481;28;20400;-63
2023/09/15 03:26:27;;;;;;;5.37;3.23;;;;;;;;;;4973236;28;20445;-63
2023/09/15 03:28:53;;;;;;;3.13;2.93;;;;;;;;;;4973384;28;20501;-62
2023/09/15 03:31:21;;;;;;;7.70;3.70;;;;;;;;;;4973301;28;20525;-63
2023/09/15 03:33:47;;;;;;;4.47;3.40;;;;;;;;;;4973424;28;20619;-63
2023/09/15 03:36:13;;;;;;;3.27;3.07;;;;;;;;;;4973221;28;20463;-63
2023/09/15 03:38:39;;;;;;;5.03;3.00;;;;;;;;;;4973311;28;20435;-63
2023/09/15 03:41:05;;;;;;;4.10;3.70;;;;;;;;;;4973310;28;20413;-63
2023/09/15 03:43:32;;;;;;;3.50;3.30;;;;;;;;;;4973453;28;20901;-63
2023/09/15 03:45:58;;;;;;;7.23;3.67;;;;;;;;;;4973082;28;20473;-63
2023/09/15 03:48:25;;;;;;;6.67;3.37;;;;;;;;;;4973015;28;20448;-63
2023/09/15 03:50:52;;;;;;;4.77;3.53;;;;;;;;;;4973206;28;20458;-63
2023/09/15 03:53:20;;;;;;;2.77;2.67;;;;;;;;;;4972999;28;20473;-63
2023/09/15 03:55:48;;;;;;;3.37;3.00;;;;;;;;;;4973172;28;20523;-63
2023/09/15 03:58:14;;;;;;;7.27;3.47;;;;;;;;;;4973158;28;20441;-63
2023/09/15 04:00:40;;;;;;;3.80;3.50;;;;;;;;;;4973116;28;20421;-63
2023/09/15 04:03:06;;;;;;;4.37;3.40;;;;;;;;;;4973052;28;20442;-63
2023/09/15 04:05:32;;;;;;;5.93;3.90;;;;;;;;;;4972841;28;20446;-62
2023/09/15 04:07:58;;;;;;;3.93;3.37;;;;;;;;;;4973048;28;20426;-63
2023/09/15 04:10:24;;;;;;;6.43;3.43;;;;;;;;;;4973061;28;20737;-63
2023/09/15 04:12:50;;;;;;;8.10;3.33;;;;;;;;;;4973105;28;20973;-63
2023/09/15 04:15:16;;;;;;;9.47;3.43;;;;;;;;;;4973083;28;20414;-63
2023/09/15 04:17:42;;;;;;;4.33;2.93;;;;;;;;;;4972628;28;20449;-63
2023/09/15 04:20:09;;;;;;;3.37;3.17;;;;;;;;;;4973000;28;20419;-63
2023/09/15 04:22:39;;;;;;;5.87;3.67;;;;;;;;;;4972786;28;20941;-62
2023/09/15 04:25:06;;;;;;;4.60;3.63;;;;;;;;;;4972850;28;20426;-63
2023/09/15 04:27:32;;;;;;;5.67;4.20;;;;;;;;;;4972874;28;20927;-63
2023/09/15 04:29:58;;;;;;;3.83;3.60;;;;;;;;;;4974097;28;20436;-63
2023/09/15 04:32:26;;;;;;;5.20;4.40;;;;;;;;;;4976113;28;20469;-63
2023/09/15 04:34:53;;;;;;;3.80;3.43;;;;;;;;;;4976451;28;20464;-63
2023/09/15 04:37:20;;;;;;;3.90;3.60;;;;;;;;;;4975056;28;20423;-63
2023/09/15 04:39:49;;;;;;;11.53;4.60;;;;;;;;;;4976130;28;20441;-63
2023/09/15 04:42:15;;;;;;;7.27;3.90;;;;;;;;;;4976456;28;20848;-63
2023/09/15 04:44:41;;;;;;;9.07;3.80;;;;;;;;;;4976134;28;20598;-63
2023/09/15 04:47:07;;;;;;;4.50;3.40;;;;;;;;;;4976161;28;20418;-63
2023/09/15 04:49:33;;;;;;;4.27;3.43;;;;;;;;;;4975952;28;20425;-63
2023/09/15 04:52:01;;;;;;;4.27;3.43;;;;;;;;;;4976004;28;20973;-62
2023/09/15 04:54:28;;;;;;;9.60;3.73;;;;;;;;;;4976181;28;20866;-63
2023/09/15 04:56:59;;;;;;;8.43;4.00;;;;;;;;;;4975837;28;20418;-63
2023/09/15 04:59:27;;;;;;;4.40;4.00;;;;;;;;;;4975919;28;20460;-63
2023/09/15 05:01:53;;;;;;;8.90;4.13;;;;;;;;;;4975883;28;20860;-63
2023/09/15 05:04:19;;;;;;;7.40;3.63;;;;;;;;;;4975637;28;20953;-63
2023/09/15 05:06:47;;;;;;;5.40;3.57;;;;;;;;;;4975773;28;20441;-63
2023/09/15 05:09:18;;;;;;;4.70;3.40;;;;;;;;;;4975265;28;20433;-63
2023/09/15 05:11:44;;;;;;;5.23;3.37;;;;;;;;;;4975588;28;20425;-62
2023/09/15 05:14:10;;;;;;;5.17;4.03;;;;;;;;;;4975755;28;20800;-62
2023/09/15 05:16:36;;;;;;;5.90;3.97;;;;;;;;;;4974168;28;20522;-63
2023/09/15 05:19:02;;;;;;;13.70;4.00;;;;;;;;;;4975777;28;20798;-63
2023/09/15 05:21:30;;;;;;;5.13;3.90;;;;;;;;;;4975723;28;20479;-63
2023/09/15 05:23:56;;;;;;;11.73;3.60;;;;;;;;;;4975218;28;20445;-63
2023/09/15 05:26:22;;;;;;;5.40;3.97;;;;;;;;;;4975504;28;20565;-63
2023/09/15 05:28:48;;;;;;;7.33;3.30;;;;;;;;;;4975375;28;20496;-63
2023/09/15 05:31:14;;;;;;;3.63;3.43;;;;;;;;;;4975308;28;20500;-62
2023/09/15 05:33:40;;;;;;;3.27;3.03;;;;;;;;;;4975187;28;20539;-63
2023/09/15 05:36:06;;;;;;;4.53;3.90;;;;;;;;;;4975515;28;20422;-63
2023/09/15 05:38:32;;;;;;;3.90;3.40;;;;;;;;;;4975176;28;20422;-63
2023/09/15 05:40:58;;;;;;;7.67;3.83;;;;;;;;;;4974756;28;20442;-63
2023/09/15 05:43:26;;;;;;;4.13;3.73;;;;;;;;;;4975350;28;20434;-63
2023/09/15 05:45:52;;;;;;;8.87;3.70;;;;;;;;;;4974829;28;20827;-63
2023/09/15 05:48:22;;;;;;;12.23;3.90;;;;;;;;;;4975053;28;20445;-63
2023/09/15 05:50:49;;;;;;;4.73;3.50;;;;;;;;;;4974890;28;20450;-63
2023/09/15 05:53:15;;;;;;;8.10;3.87;;;;;;;;;;4974895;28;20507;-63
2023/09/15 05:55:43;;;;;;;4.90;3.67;;;;;;;;;;4974948;28;20505;-63
2023/09/15 05:58:09;;;;;;;10.50;3.67;;;;;;;;;;4974627;28;20424;-63
2023/09/15 06:00:35;;;;;;;4.73;3.30;;;;;;;;;;4974745;28;20512;-63
2023/09/15 06:03:02;;;;;;;7.40;3.23;;;;;;;;;;4973412;28;20454;-62
2023/09/15 06:05:27;;;;;;;11.97;7.73;;;;;;;;;;4974576;28;20426;-63
2023/09/15 06:07:53;;;;;;;12.80;7.17;;;;;;;;;;4974608;28;20450;-62
2023/09/15 06:10:20;;;;;;;11.97;8.50;;;;;;;;;;4974771;28;20681;-63
2023/09/15 06:12:48;;;;;;;6.03;3.90;;;;;;;;;;4974474;28;20477;-63
2023/09/15 06:15:14;;;;;;;6.00;5.50;;;;;;;;;;4974288;28;20476;-63
2023/09/15 06:17:40;;;;;;;6.40;4.00;;;;;;;;;;4974915;28;20408;-63
2023/09/15 06:20:07;;;;;;;9.07;7.20;;;;;;;;;;4974424;28;20442;-62
2023/09/15 06:22:33;;;;;;;11.37;7.17;;;;;;;;;;4974410;28;20421;-62
2023/09/15 06:24:59;;;;;;;6.77;5.20;;;;;;;;;;4974260;28;20494;-63
2023/09/15 06:27:29;;;;;;;6.60;5.63;;;;;;;;;;4974385;28;20473;-63
2023/09/15 06:29:58;;;;;;;7.33;4.60;;;;;;;;;;4974060;28;20508;-63
2023/09/15 06:32:27;;;;;;;10.23;7.47;;;;;;;;;;4974134;28;20469;-62
2023/09/15 06:34:55;;;;;;;8.00;6.13;;;;;;;;;;4974209;28;20799;-63
2023/09/15 06:37:21;;;;;;;20.33;13.47;;;;;;;;;;4974191;28;20410;-63
2023/09/15 06:39:47;;;;;;;13.37;10.13;;;;;;;;;;4973861;28;20421;-63
2023/09/15 06:42:13;;;;;;;5.90;4.80;;;;;;;;;;4973799;28;20442;-63
2023/09/15 06:44:39;;;;;;;13.40;6.77;;;;;;;;;;4973755;28;20925;-63
2023/09/15 06:47:08;;;;;;;6.10;5.10;;;;;;;;;;4973321;28;20442;-62
2023/09/15 06:49:36;;;;;;;6.00;4.50;;;;;;;;;;4973656;28;20403;-63
2023/09/15 06:52:02;;;;;;;11.93;9.37;;;;;;;;;;4971765;28;20533;-62
2023/09/15 06:54:28;;;;;;;7.80;4.87;;;;;;;;;;4973816;28;20399;-63
2023/09/15 06:56:54;;;;;;;6.93;5.37;;;;;;;;;;4973930;28;20413;-63
2023/09/15 06:59:20;;;;;;;10.77;5.80;;;;;;;;;;4973453;28;20886;-63
2023/09/15 07:01:46;;;;;;;9.00;5.90;;;;;;;;;;4973611;28;20411;-65
2023/09/15 07:04:13;;;;;;;6.23;5.30;;;;;;;;;;4972985;28;20928;-64
2023/09/15 07:06:39;;;;;;;5.33;4.67;;;;;;;;;;4973478;28;20437;-63
2023/09/15 07:09:05;;;;;;;8.20;6.70;;;;;;;;;;4972915;28;20515;-65
2023/09/15 07:11:34;;;;;;;5.70;5.20;;;;;;;;;;4973380;28;20433;-63
2023/09/15 07:14:02;;;;;;;5.20;4.90;;;;;;;;;;4973585;28;20438;-63
2023/09/15 07:16:28;;;;;;;6.07;5.40;;;;;;;;;;4973657;28;20428;-63
2023/09/15 07:18:54;;;;;;;5.40;5.00;;;;;;;;;;4973555;28;20887;-63
2023/09/15 07:21:22;;;;;;;6.30;4.80;;;;;;;;;;4973049;28;20418;-63
2023/09/15 07:23:48;;;;;;;5.13;4.63;;;;;;;;;;4973536;28;20409;-63
2023/09/15 07:26:14;;;;;;;8.40;5.30;;;;;;;;;;4973230;28;20521;-63
2023/09/15 07:28:40;;;;;;;7.63;4.77;;;;;;;;;;4974035;28;20458;-63
2023/09/15 07:31:09;;;;;;;9.47;6.30;;;;;;;;;;4973753;28;20904;-63
2023/09/15 07:33:35;;;;;;;26.73;12.40;;;;;;;;;;4973729;28;20520;-63
2023/09/15 07:36:04;;;;;;;7.17;5.00;;;;;;;;;;4973681;28;20896;-63
2023/09/15 07:38:31;;;;;;;5.60;4.63;;;;;;;;;;4972837;28;20414;-63
2023/09/15 07:40:57;;;;;;;4.87;4.43;;;;;;;;;;4973061;28;20471;-64
2023/09/15 07:43:26;;;;;;;8.90;5.27;;;;;;;;;;4972417;28;20428;-64
2023/09/15 07:45:52;;;;;;;8.10;5.03;;;;;;;;;;4972902;28;20431;-64
2023/09/15 07:48:18;;;;;;;5.70;4.90;;;;;;;;;;4971581;28;20451;-64
2023/09/15 07:50:44;;;;;;;7.23;4.70;;;;;;;;;;4972893;28;20425;-64
2023/09/15 07:53:10;;;;;;;4.90;4.33;;;;;;;;;;4972383;28;20470;-64
2023/09/15 07:55:36;;;;;;;5.40;4.53;;;;;;;;;;4972914;28;20419;-64
2023/09/15 07:58:05;;;;;;;8.97;5.73;;;;;;;;;;4972562;28;20424;-64
2023/09/15 08:00:31;;;;;;;9.13;5.00;;;;;;;;;;4972894;28;20455;-64
2023/09/15 08:02:59;;;;;;;6.20;4.60;;;;;;;;;;4971632;28;20514;-65
2023/09/15 08:05:25;;;;;;;5.70;4.50;;;;;;;;;;4976315;28;20428;-65
2023/09/15 08:07:51;;;;;;;11.60;5.67;;;;;;;;;;4976272;28;20982;-65
2023/09/15 08:10:22;;;;;;;9.50;5.90;;;;;;;;;;4976541;28;20425;-65
2023/09/15 08:12:52;;;;;;;5.13;4.60;;;;;;;;;;4976432;28;20474;-65
2023/09/15 08:15:21;;;;;;;12.50;5.90;;;;;;;;;;4976199;28;20462;-65
2023/09/15 08:17:48;;;;;;;6.97;5.43;;;;;;;;;;4975308;28;20435;-64
2023/09/15 08:20:17;;;;;;;10.60;4.67;;;;;;;;;;4976614;28;20784;-65
2023/09/15 08:22:43;;;;;;;5.50;5.10;;;;;;;;;;4976452;28;20412;-64
2023/09/15 08:25:14;;;;;;;10.50;5.10;;;;;;;;;;4976353;28;20404;-64
2023/09/15 08:27:40;;;;;;;5.40;4.63;;;;;;;;;;4974499;28;20803;-64
2023/09/15 08:30:09;;;;;;;14.40;4.87;;;;;;;;;;4976561;28;20431;-64
2023/09/15 08:32:35;;;;;;;7.37;5.30;;;;;;;;;;4975800;28;20468;-64
2023/09/15 08:35:01;;;;;;;7.00;5.10;;;;;;;;;;4975858;28;20804;-64
2023/09/15 08:37:27;;;;;;;6.53;4.43;;;;;;;;;;4974592;28;20482;-65
2023/09/15 08:39:53;;;;;;;4.97;4.43;;;;;;;;;;4974969;28;20833;-64
2023/09/15 08:42:25;;;;;;;5.77;4.53;;;;;;;;;;4976008;28;20524;-64
2023/09/15 08:44:51;;;;;;;6.10;5.30;;;;;;;;;;4975333;28;20982;-64
2023/09/15 08:47:21;;;;;;;7.23;4.93;;;;;;;;;;4975863;28;20436;-64
2023/09/15 08:49:52;;;;;;;5.27;4.77;;;;;;;;;;4975981;28;20505;-65
2023/09/15 08:52:18;;;;;;;9.70;4.90;;;;;;;;;;4976159;28;20953;-65
2023/09/15 08:54:46;;;;;;;7.50;4.30;;;;;;;;;;4975261;28;20919;-65
2023/09/15 08:57:13;;;;;;;6.33;4.43;;;;;;;;;;4975571;28;20410;-64
2023/09/15 08:59:40;;;;;;;5.47;5.00;;;;;;;;;;4975528;28;20463;-65
2023/09/15 09:02:06;;;;;;;4.93;4.53;;;;;;;;;;4975953;28;20444;-65
2023/09/15 09:04:31;;;;;;;5.20;4.70;;;;;;;;;;4975163;28;20517;-64
2023/09/15 09:06:59;;;;;;;11.10;4.90;;;;;;;;;;4974289;28;20452;-65
2023/09/15 09:09:25;;;;;;;8.80;5.47;;;;;;;;;;4975112;28;20877;-65
2023/09/15 09:11:54;;;;;;;45.70;31.10;;;;;;;;;;4975110;28;20481;-64
2023/09/15 09:14:20;;;;;;;10.67;6.77;;;;;;;;;;4975494;28;20424;-65
2023/09/15 09:16:47;;;;;;;15.20;6.70;;;;;;;;;;4974217;28;20898;-65
2023/09/15 09:19:15;;;;;;;5.80;5.20;;;;;;;;;;4974997;28;20425;-64
2023/09/15 09:21:41;;;;;;;7.43;4.70;;;;;;;;;;4975427;28;20750;-65
2023/09/15 09:24:09;;;;;;;7.90;5.00;;;;;;;;;;4975191;28;20412;-65
2023/09/15 09:26:37;;;;;;;7.70;5.70;;;;;;;;;;4974872;28;20438;-64
2023/09/15 09:29:06;;;;;;;6.07;5.57;;;;;;;;;;4975120;28;20438;-65
2023/09/15 09:31:32;;;;;;;6.87;5.50;;;;;;;;;;4973929;28;20428;-65
2023/09/15 09:33:58;;;;;;;7.10;5.37;;;;;;;;;;4975419;28;20489;-64
2023/09/15 09:36:25;;;;;;;6.57;4.90;;;;;;;;;;4974900;28;20417;-64
2023/09/15 09:38:52;;;;;;;9.80;4.87;;;;;;;;;;4974826;28;20943;-64
2023/09/15 09:41:24;;;;;;;16.53;4.13;;;;;;;;;;4974914;28;20413;-64
2023/09/15 09:43:50;;;;;;;7.87;5.10;;;;;;;;;;4975034;28;20469;-65
2023/09/15 09:46:23;;;;;;;11.07;5.53;;;;;;;;;;4974626;28;20431;-65
2023/09/15 09:48:49;;;;;;;9.87;7.07;;;;;;;;;;4974809;28;20469;-64
2023/09/15 09:51:16;;;;;;;8.27;5.57;;;;;;;;;;4974643;28;20419;-65
2023/09/15 09:53:42;;;;;;;7.97;4.97;;;;;;;;;;4973822;28;20843;-64
2023/09/15 09:56:08;;;;;;;5.13;4.63;;;;;;;;;;4974777;28;20420;-64
2023/09/15 09:58:36;;;;;;;5.97;4.90;;;;;;;;;;4974842;28;20503;-65
2023/09/15 10:01:04;;;;;;;11.47;5.30;;;;;;;;;;4974696;28;20449;-65
2023/09/15 10:03:30;;;;;;;5.73;5.20;;;;;;;;;;4974873;28;20441;-64
2023/09/15 10:05:59;;;;;;;5.80;5.30;;;;;;;;;;4973505;28;20463;-64
2023/09/15 10:08:26;;;;;;;5.50;4.93;;;;;;;;;;4974646;28;20430;-64
2023/09/15 10:10:53;;;;;;;7.27;6.30;;;;;;;;;;4974870;28;20424;-64
2023/09/15 10:13:19;;;;;;;8.13;5.40;;;;;;;;;;4974358;28;20813;-65
2023/09/15 10:15:46;;;;;;;6.20;5.80;;;;;;;;;;4974634;28;20483;-64
2023/09/15 10:18:15;;;;;;;10.30;5.27;;;;;;;;;;4973886;28;20894;-64
2023/09/15 10:20:44;;;;;;;7.30;5.37;;;;;;;;;;4974091;28;20433;-64
2023/09/15 10:23:12;;;;;;;9.60;6.30;;;;;;;;;;4973742;28;20426;-64
2023/09/15 10:25:50;;;;;;;7.93;5.93;;;;;;;;;;4973679;28;20442;-64
2023/09/15 10:28:22;;;;;;;15.33;5.80;;;;;;;;;;4973965;28;20421;-64
2023/09/15 10:30:53;;;;;;;11.07;5.60;;;;;;;;;;4974608;28;20960;-64
2023/09/15 10:33:22;;;;;;;6.70;4.63;;;;;;;;;;4974487;28;20482;-64
2023/09/15 10:35:48;;;;;;;6.80;4.90;;;;;;;;;;4973055;28;20453;-64
2023/09/15 10:38:27;;;;;;;7.30;5.50;;;;;;;;;;4974500;28;20428;-64
2023/09/15 10:40:54;;;;;;;6.97;6.33;;;;;;;;;;4972923;28;20418;-64
2023/09/15 10:43:20;;;;;;;6.07;5.30;;;;;;;;;;4974240;28;20429;-64
2023/09/15 10:45:53;;;;;;;8.00;5.00;;;;;;;;;;4974028;28;20422;-64
2023/09/15 10:48:19;;;;;;;5.80;5.37;;;;;;;;;;4974138;28;20956;-64
2023/09/15 10:50:46;;;;;;;9.57;5.20;;;;;;;;;;4973723;28;20437;-64
2023/09/15 10:53:14;;;;;;;7.40;5.37;;;;;;;;;;4973455;28;20482;-64
2023/09/15 10:55:43;;;;;;;10.70;5.10;;;;;;;;;;4972712;28;20450;-65
2023/09/15 10:58:09;;;;;;;7.03;5.10;;;;;;;;;;4973342;28;20498;-65
2023/09/15 11:00:36;;;;;;;5.20;4.63;;;;;;;;;;4974091;28;20518;-65
2023/09/15 11:03:03;;;;;;;6.23;4.67;;;;;;;;;;4974026;28;20422;-65
2023/09/15 11:05:30;;;;;;;5.90;5.40;;;;;;;;;;4972704;28;20419;-65
2023/09/15 11:07:56;;;;;;;5.80;5.30;;;;;;;;;;4974059;28;20494;-65
2023/09/15 11:10:32;;;;;;;5.43;5.13;;;;;;;;;;4974145;28;20449;-65
2023/09/15 11:13:08;;;;;;;10.23;4.67;;;;;;;;;;4973935;28;20957;-65
2023/09/15 11:15:34;;;;;;;7.10;5.30;;;;;;;;;;4973906;28;20496;-65
2023/09/15 11:18:00;;;;;;;9.27;5.87;;;;;;;;;;4973362;28;20427;-65
2023/09/15 11:20:26;;;;;;;5.00;4.50;;;;;;;;;;4973881;28;20465;-65
2023/09/15 11:22:56;;;;;;;5.50;4.90;;;;;;;;;;4973521;28;20423;-65
2023/09/15 11:25:22;;;;;;;5.27;4.60;;;;;;;;;;4972926;28;20928;-65
2023/09/15 11:27:53;;;;;;;5.30;5.00;;;;;;;;;;4973208;28;20477;-65
2023/09/15 11:30:24;;;;;;;5.80;5.20;;;;;;;;;;4973188;28;20481;-66
2023/09/15 11:32:50;;;;;;;5.73;5.33;;;;;;;;;;4974808;28;20493;-66
2023/09/15 11:35:20;;;;;;;4.63;4.50;;;;;;;;;;4973131;28;20423;-66
2023/09/15 11:37:46;;;;;;;5.53;5.23;;;;;;;;;;4972232;28;20446;-65
2023/09/15 11:40:24;;;;;;;8.43;6.10;;;;;;;;;;4979408;28;20890;-65
2023/09/15 11:42:59;;;;;;;5.80;5.27;;;;;;;;;;4979428;28;20449;-65
2023/09/15 11:45:27;;;;;;;9.83;5.53;;;;;;;;;;4979347;28;20497;-65
2023/09/15 11:47:54;;;;;;;6.43;5.63;;;;;;;;;;4979712;28;20476;-65
2023/09/15 11:50:20;;;;;;;6.53;5.97;;;;;;;;;;4978966;28;20426;-65
2023/09/15 11:52:46;;;;;;;6.23;5.70;;;;;;;;;;4979490;28;20461;-65
2023/09/15 11:55:21;;;;;;;5.20;4.90;;;;;;;;;;4979635;28;20411;-64
2023/09/15 11:57:50;;;;;;;4.50;4.40;;;;;;;;;;4979879;28;20410;-64
2023/09/15 12:00:19;;;;;;;5.30;4.97;;;;;;;;;;4979394;28;20537;-64
2023/09/15 12:02:45;;;;;;;5.30;4.90;;;;;;;;;;4979129;28;20539;-66
2023/09/15 12:05:14;;;;;;;11.07;5.30;;;;;;;;;;4979917;28;20465;-67
2023/09/15 12:07:40;;;;;;;5.93;5.63;;;;;;;;;;4980017;28;20926;-67
2023/09/15 12:10:06;;;;;;;5.03;4.50;;;;;;;;;;4979611;28;20477;-67
2023/09/15 12:12:33;;;;;;;5.80;5.40;;;;;;;;;;4979362;28;20458;-67
2023/09/15 12:15:04;;;;;;;7.70;5.20;;;;;;;;;;4979546;28;20513;-66
2023/09/15 12:17:30;;;;;;;5.30;5.00;;;;;;;;;;4978325;28;20433;-67
2023/09/15 12:20:06;;;;;;;5.13;4.93;;;;;;;;;;4979751;28;20418;-66
2023/09/15 12:22:32;;;;;;;7.97;4.80;;;;;;;;;;4978291;28;20457;-67
2023/09/15 12:24:59;;;;;;;5.27;4.90;;;;;;;;;;4979310;28;20870;-67
2023/09/15 12:27:28;;;;;;;5.90;5.50;;;;;;;;;;4979403;28;20442;-67
2023/09/15 12:29:54;;;;;;;5.67;5.17;;;;;;;;;;4979721;28;20454;-67
2023/09/15 12:32:26;;;;;;;5.23;4.60;;;;;;;;;;4979303;28;20547;-66
2023/09/15 12:34:54;;;;;;;8.97;4.10;;;;;;;;;;4979767;28;20484;-66
2023/09/15 12:37:20;;;;;;;5.27;4.97;;;;;;;;;;4978646;28;21019;-66
2023/09/15 12:39:46;;;;;;;5.07;4.77;;;;;;;;;;4978852;28;20422;-66
2023/09/15 12:42:13;;;;;;;5.50;5.30;;;;;;;;;;4979354;28;20442;-67
2023/09/15 12:44:39;;;;;;;5.10;4.70;;;;;;;;;;4979316;28;20418;-66
2023/09/15 12:47:05;;;;;;;4.40;4.20;;;;;;;;;;4978434;28;20461;-66
2023/09/15 12:49:32;;;;;;;4.70;4.30;;;;;;;;;;4978613;28;20480;-66
2023/09/15 12:51:58;;;;;;;5.10;4.27;;;;;;;;;;4973820;28;20454;-66
2023/09/15 12:54:24;;;;;;;6.37;5.73;;;;;;;;;;4975915;28;20832;-66
2023/09/15 12:56:53;;;;;;;5.27;4.80;;;;;;;;;;4975687;28;20488;-66
2023/09/15 12:59:22;;;;;;;5.30;5.00;;;;;;;;;;4976006;28;20414;-66
2023/09/15 13:01:48;;;;;;;4.70;4.50;;;;;;;;;;4975706;28;20961;-67
2023/09/15 13:04:14;;;;;;;5.83;5.37;;;;;;;;;;4975663;28;20418;-66
2023/09/15 13:06:42;;;;;;;4.53;4.33;;;;;;;;;;4975611;28;20411;-66
2023/09/15 13:09:12;;;;;;;5.20;4.90;;;;;;;;;;4973745;28;20489;-66
2023/09/15 13:11:40;;;;;;;5.10;4.90;;;;;;;;;;4975939;28;20459;-66
2023/09/15 13:14:06;;;;;;;5.80;4.60;;;;;;;;;;4975686;28;20549;-66
2023/09/15 13:16:32;;;;;;;4.50;4.20;;;;;;;;;;4974329;28;20522;-66
2023/09/15 13:18:58;;;;;;;5.23;4.77;;;;;;;;;;4975556;28;20433;-66
2023/09/15 13:21:24;;;;;;;4.83;4.47;;;;;;;;;;4975701;28;20939;-66
2023/09/15 13:23:50;;;;;;;4.40;4.10;;;;;;;;;;4974347;28;20438;-66
2023/09/15 13:26:16;;;;;;;5.77;4.67;;;;;;;;;;4974566;28;20430;-67
2023/09/15 13:28:44;;;;;;;5.20;4.80;;;;;;;;;;4975377;28;20449;-67
2023/09/15 13:31:10;;;;;;;5.10;4.90;;;;;;;;;;4975148;28;20422;-67
2023/09/15 13:33:36;;;;;;;5.07;4.77;;;;;;;;;;4974848;28;20466;-67
2023/09/15 13:36:02;;;;;;;4.93;4.53;;;;;;;;;;4975345;28;20517;-66
2023/09/15 13:38:31;;;;;;;4.80;4.50;;;;;;;;;;4975590;28;20518;-67
2023/09/15 13:40:57;;;;;;;4.53;4.43;;;;;;;;;;4975331;28;20411;-67
2023/09/15 13:43:23;;;;;;;4.67;4.40;;;;;;;;;;4975351;28;20854;-66
2023/09/15 13:45:52;;;;;;;4.60;4.30;;;;;;;;;;4975040;28;20501;-66
2023/09/15 13:48:20;;;;;;;4.83;4.57;;;;;;;;;;4975218;28;20860;-67
2023/09/15 13:50:46;;;;;;;4.80;4.37;;;;;;;;;;4974497;28;20450;-66
2023/09/15 13:53:12;;;;;;;4.80;4.50;;;;;;;;;;4975114;28;20482;-66
2023/09/15 13:55:38;;;;;;;13.77;12.70;;;;;;;;;;4975346;28;20442;-66
2023/09/15 13:58:04;;;;;;;7.47;6.70;;;;;;;;;;4975056;28;20470;-66
2023/09/15 14:00:30;;;;;;;6.33;5.83;;;;;;;;;;4975244;28;20947;-66
2023/09/15 14:02:56;;;;;;;6.33;5.67;;;;;;;;;;4974941;28;20526;-65
2023/09/15 14:05:23;;;;;;;4.70;4.40;;;;;;;;;;4974645;28;20411;-65
2023/09/15 14:07:50;;;;;;;5.97;5.53;;;;;;;;;;4973519;28;20861;-66
2023/09/15 14:10:17;;;;;;;4.90;4.70;;;;;;;;;;4973436;28;20522;-66
2023/09/15 14:12:43;;;;;;;5.13;4.63;;;;;;;;;;4974696;28;20466;-66
2023/09/15 14:15:10;;;;;;;8.63;4.93;;;;;;;;;;4974612;28;20417;-66
2023/09/15 14:17:36;;;;;;;5.53;5.23;;;;;;;;;;4974625;28;20415;-66
2023/09/15 14:20:05;;;;;;;6.10;5.60;;;;;;;;;;4974187;28;20411;-66
2023/09/15 14:22:31;;;;;;;5.13;4.83;;;;;;;;;;4974488;28;20926;-66
2023/09/15 14:24:58;;;;;;;6.43;5.13;;;;;;;;;;4974698;28;20419;-67
2023/09/15 14:27:24;;;;;;;5.83;5.43;;;;;;;;;;4973422;28;20442;-67
2023/09/15 14:29:51;;;;;;;5.40;5.00;;;;;;;;;;4974469;28;20906;-67
2023/09/15 14:32:16;;;;;;;5.70;5.40;;;;;;;;;;4974418;28;20646;-67
2023/09/15 14:34:43;;;;;;;5.47;5.10;;;;;;;;;;4975025;28;20755;-67
2023/09/15 14:37:10;;;;;;;5.63;5.20;;;;;;;;;;4974358;28;20462;-67
2023/09/15 14:39:36;;;;;;;5.47;5.17;;;;;;;;;;4974523;28;20414;-67
2023/09/15 14:42:02;;;;;;;5.00;4.70;;;;;;;;;;4973814;28;20502;-66